sensor_id;sensor_type;location;lat;lon;timestamp;pressure;altitude;pressure_sealevel;temperature;humidity
16431;BME280;8325;49.284;7.238;2023-02-20T05:02:16;99887.19;;;4.79;100.00
16431;BME280;8325;49.284;7.238;2023-02-20T05:06:28;99883.88;;;4.77;100.00
16431;BME280;8325;49.284;7.238;2023-02-20T05:10:39;99883.88;;;4.90;100.00
16431;BME280;8325;49.284;7.238;2023-02-20T05:14:51;99867.94;;;4.83;100.00
16431;BME280;8325;49.284;7.238;2023-02-20T05:19:07;99858.41;;;4.71;100.00
16431;BME280;8325;49.284;7.238;2023-02-20T05:23:18;99855.31;;;4.66;100.00
16431;BME280;8325;49.284;7.238;2023-02-20T05:27:30;99851.16;;;4.76;100.00
16431;BME280;8325;49.284;7.238;2023-02-20T05:31:41;99858.63;;;4.68;100.00
16431;BME280;8325;49.284;7.238;2023-02-20T05:35:53;99847.66;;;4.77;100.00
16431;BME280;8325;49.284;7.238;2023-02-20T05:40:05;99846.19;;;4.73;100.00
16431;BME280;8325;49.284;7.238;2023-02-20T05:44:17;99846.59;;;4.67;100.00
16431;BME280;8325;49.284;7.238;2023-02-20T05:48:28;99846.59;;;4.67;100.00
16431;BME280;8325;49.284;7.238;2023-02-20T05:52:40;99847.22;;;4.58;100.00
16431;BME280;8325;49.284;7.238;2023-02-20T05:56:51;99857.56;;;4.58;100.00
16431;BME280;8325;49.284;7.238;2023-02-20T06:01:03;99850.63;;;4.58;100.00
16431;BME280;8325;49.284;7.238;2023-02-20T06:05:15;99852.41;;;4.58;100.00
16431;BME280;8325;49.284;7.238;2023-02-20T06:09:26;99851.50;;;4.59;100.00
16431;BME280;8325;49.284;7.238;2023-02-20T06:13:39;99852.13;;;4.50;100.00
16431;BME280;8325;49.284;7.238;2023-02-20T06:17:51;99855.19;;;4.42;100.00
16431;BME280;8325;49.284;7.238;2023-02-20T06:22:03;99855.19;;;4.29;100.00
16431;BME280;8325;49.284;7.238;2023-02-20T06:26:16;99846.69;;;4.27;100.00
16431;BME280;8325;49.284;7.238;2023-02-20T06:30:28;99843.91;;;4.30;100.00
16431;BME280;8325;49.284;7.238;2023-02-20T06:34:39;99848.88;;;4.46;100.00
16431;BME280;8325;49.284;7.238;2023-02-20T06:38:51;99852.81;;;4.52;100.00
16431;BME280;8325;49.284;7.238;2023-02-20T06:43:02;99851.16;;;4.51;100.00
16431;BME280;8325;49.284;7.238;2023-02-20T06:47:14;99856.22;;;4.52;100.00
16431;BME280;8325;49.284;7.238;2023-02-20T06:51:31;99859.34;;;4.57;100.00
16431;BME280;8325;49.284;7.238;2023-02-20T06:55:42;99859.03;;;4.62;100.00
16431;BME280;8325;49.284;7.238;2023-02-20T06:59:54;99870.84;;;4.66;100.00
16431;BME280;8325;49.284;7.238;2023-02-20T07:04:06;99867.09;;;4.70;100.00
16431;BME280;8325;49.284;7.238;2023-02-20T07:08:17;99873.94;;;4.71;100.00
16431;BME280;8325;49.284;7.238;2023-02-20T07:12:30;99874.16;;;4.81;100.00
16431;BME280;8325;49.284;7.238;2023-02-20T07:16:42;99873.31;;;4.80;100.00
16431;BME280;8325;49.284;7.238;2023-02-20T07:20:54;99878.38;;;4.82;100.00
16431;BME280;8325;49.284;7.238;2023-02-20T07:25:05;99884.19;;;4.85;100.00
16431;BME280;8325;49.284;7.238;2023-02-20T07:29:17;99883.53;;;4.95;100.00
16431;BME280;8325;49.284;7.238;2023-02-20T07:33:28;99893.69;;;4.98;100.00
16431;BME280;8325;49.284;7.238;2023-02-20T07:37:40;99893.78;;;5.09;100.00
16431;BME280;8325;49.284;7.238;2023-02-20T07:41:52;99875.53;;;5.11;100.00
16431;BME280;8325;49.284;7.238;2023-02-20T07:46:29;99885.03;;;5.23;100.00
16431;BME280;8325;49.284;7.238;2023-02-20T07:50:44;99883.78;;;5.28;100.00
16431;BME280;8325;49.284;7.238;2023-02-20T07:54:55;99886.25;;;5.43;100.00
16431;BME280;8325;49.284;7.238;2023-02-20T07:59:07;99888.03;;;5.66;100.00
16431;BME280;8325;49.284;7.238;2023-02-20T08:03:20;99890.97;;;5.86;100.00
16431;BME280;8325;49.284;7.238;2023-02-20T08:07:31;99877.47;;;5.93;100.00
16431;BME280;8325;49.284;7.238;2023-02-20T08:11:43;99883.16;;;5.98;100.00
16431;BME280;8325;49.284;7.238;2023-02-20T08:15:55;99880.34;;;6.02;100.00
16431;BME280;8325;49.284;7.238;2023-02-20T08:20:07;99885.78;;;6.10;100.00
16431;BME280;8325;49.284;7.238;2023-02-20T08:24:19;99895.31;;;6.09;100.00
16431;BME280;8325;49.284;7.238;2023-02-20T08:28:30;99890.41;;;6.17;100.00
16431;BME280;8325;49.284;7.238;2023-02-20T08:32:42;99890.63;;;6.14;100.00
16431;BME280;8325;49.284;7.238;2023-02-20T08:36:53;99873.88;;;6.18;100.00
16431;BME280;8325;49.284;7.238;2023-02-20T08:41:07;99873.44;;;6.25;100.00
16431;BME280;8325;49.284;7.238;2023-02-20T08:45:19;99874.66;;;6.32;100.00
16431;BME280;8325;49.284;7.238;2023-02-20T08:49:31;99868.97;;;6.27;100.00
16431;BME280;8325;49.284;7.238;2023-02-20T08:53:42;99867.09;;;6.40;99.98
16431;BME280;8325;49.284;7.238;2023-02-20T08:57:54;99861.69;;;6.43;100.00
16431;BME280;8325;49.284;7.238;2023-02-20T09:02:08;99865.03;;;6.56;100.00
16431;BME280;8325;49.284;7.238;2023-02-20T09:06:25;99862.41;;;6.67;100.00
16431;BME280;8325;49.284;7.238;2023-02-20T09:10:39;99858.06;;;6.90;100.00
16431;BME280;8325;49.284;7.238;2023-02-20T09:14:50;99847.56;;;7.14;98.09
16431;BME280;8325;49.284;7.238;2023-02-20T09:19:02;99855.66;;;7.32;98.62
16431;BME280;8325;49.284;7.238;2023-02-20T09:23:13;99853.38;;;7.50;96.91
16431;BME280;8325;49.284;7.238;2023-02-20T09:27:25;99858.09;;;7.56;95.50
16431;BME280;8325;49.284;7.238;2023-02-20T09:31:37;99855.31;;;7.69;95.38
16431;BME280;8325;49.284;7.238;2023-02-20T09:35:48;99844.88;;;7.80;94.83
16431;BME280;8325;49.284;7.238;2023-02-20T09:40:02;99835.84;;;7.96;93.08
16431;BME280;8325;49.284;7.238;2023-02-20T09:44:25;99830.94;;;8.02;92.85
16431;BME280;8325;49.284;7.238;2023-02-20T09:53:37;99830.38;;;8.20;93.06
16431;BME280;8325;49.284;7.238;2023-02-20T09:57:52;99821.66;;;8.30;91.81
16431;BME280;8325;49.284;7.238;2023-02-20T10:02:23;99825.31;;;8.39;91.76
16431;BME280;8325;49.284;7.238;2023-02-20T10:06:37;99828.09;;;8.47;91.86
16431;BME280;8325;49.284;7.238;2023-02-20T10:10:50;99823.41;;;8.62;91.15
16431;BME280;8325;49.284;7.238;2023-02-20T10:24:23;99814.53;;;9.25;89.32
16431;BME280;8325;49.284;7.238;2023-02-20T10:28:37;99811.25;;;9.32;88.05
16431;BME280;8325;49.284;7.238;2023-02-20T10:32:55;99814.53;;;9.34;88.30
16431;BME280;8325;49.284;7.238;2023-02-20T10:37:13;99816.88;;;9.37;87.73
16431;BME280;8325;49.284;7.238;2023-02-20T10:41:32;99812.22;;;9.51;87.75
16431;BME280;8325;49.284;7.238;2023-02-20T10:45:53;99807.56;;;9.74;85.57
16431;BME280;8325;49.284;7.238;2023-02-20T10:50:22;99801.50;;;9.93;85.68
16431;BME280;8325;49.284;7.238;2023-02-20T10:54:54;99797.91;;;10.13;85.94
16431;BME280;8325;49.284;7.238;2023-02-20T10:59:14;99788.72;;;10.28;83.46
16431;BME280;8325;49.284;7.238;2023-02-20T11:07:53;99781.59;;;10.58;83.37
16431;BME280;8325;49.284;7.238;2023-02-20T11:12:05;99785.06;;;10.76;82.49
16431;BME280;8325;49.284;7.238;2023-02-20T11:16:23;99778.41;;;10.92;81.90
16431;BME280;8325;49.284;7.238;2023-02-20T11:20:40;99779.16;;;11.02;81.85
16431;BME280;8325;49.284;7.238;2023-02-20T11:24:52;99782.16;;;11.07;79.85
16431;BME280;8325;49.284;7.238;2023-02-20T11:29:11;99771.56;;;11.09;79.17
16431;BME280;8325;49.284;7.238;2023-02-20T11:33:28;99763.66;;;11.18;77.89
16431;BME280;8325;49.284;7.238;2023-02-20T11:37:40;99762.69;;;11.37;77.20
16431;BME280;8325;49.284;7.238;2023-02-20T11:42:15;99756.34;;;11.40;75.89
16431;BME280;8325;49.284;7.238;2023-02-20T11:46:27;99748.25;;;11.51;75.23
16431;BME280;8325;49.284;7.238;2023-02-20T11:50:50;99727.09;;;11.44;75.51
16431;BME280;8325;49.284;7.238;2023-02-20T11:55:19;99725.00;;;11.48;75.81
16431;BME280;8325;49.284;7.238;2023-02-20T11:59:45;99722.66;;;11.63;75.32
16431;BME280;8325;49.284;7.238;2023-02-20T12:03:59;99709.88;;;11.78;75.11
16431;BME280;8325;49.284;7.238;2023-02-20T12:12:51;99702.13;;;11.94;73.63
16431;BME280;8325;49.284;7.238;2023-02-20T12:21:53;99688.22;;;12.19;70.39
16431;BME280;8325;49.284;7.238;2023-02-20T12:44:07;99666.16;;;12.81;67.62
16431;BME280;8325;49.284;7.238;2023-02-20T12:48:47;99671.72;;;12.86;65.68
16431;BME280;8325;49.284;7.238;2023-02-20T13:01:51;99636.00;;;13.01;65.04
16431;BME280;8325;49.284;7.238;2023-02-20T13:06:04;99628.81;;;13.03;64.35
16431;BME280;8325;49.284;7.238;2023-02-20T13:10:22;99610.78;;;13.00;64.85
16431;BME280;8325;49.284;7.238;2023-02-20T13:19:15;99604.38;;;13.03;63.58
16431;BME280;8325;49.284;7.238;2023-02-20T13:23:32;99600.13;;;13.10;63.87
16431;BME280;8325;49.284;7.238;2023-02-20T13:27:44;99597.97;;;12.89;62.69
16431;BME280;8325;49.284;7.238;2023-02-20T13:31:57;99590.78;;;12.99;63.79
16431;BME280;8325;49.284;7.238;2023-02-20T13:40:42;99571.09;;;13.11;62.75
16431;BME280;8325;49.284;7.238;2023-02-20T13:44:54;99559.28;;;13.16;63.33
16431;BME280;8325;49.284;7.238;2023-02-20T13:49:07;99553.06;;;13.17;62.42
16431;BME280;8325;49.284;7.238;2023-02-20T13:53:21;99548.13;;;13.22;63.80
16431;BME280;8325;49.284;7.238;2023-02-20T13:57:32;99548.47;;;13.19;63.34
16431;BME280;8325;49.284;7.238;2023-02-20T14:06:26;99537.16;;;13.18;64.33
16431;BME280;8325;49.284;7.238;2023-02-20T14:10:38;99525.34;;;13.22;63.88
16431;BME280;8325;49.284;7.238;2023-02-20T14:14:50;99533.56;;;13.27;63.75
16431;BME280;8325;49.284;7.238;2023-02-20T14:19:06;99520.59;;;13.34;62.56
16431;BME280;8325;49.284;7.238;2023-02-20T14:23:29;99511.75;;;13.27;61.24
16431;BME280;8325;49.284;7.238;2023-02-20T14:27:41;99499.75;;;13.24;61.58
16431;BME280;8325;49.284;7.238;2023-02-20T14:31:54;99500.44;;;13.26;60.91
16431;BME280;8325;49.284;7.238;2023-02-20T14:36:13;99491.41;;;13.29;61.30
16431;BME280;8325;49.284;7.238;2023-02-20T14:40:42;99491.75;;;13.26;61.01
16431;BME280;8325;49.284;7.238;2023-02-20T14:45:00;99487.16;;;13.28;60.98
16431;BME280;8325;49.284;7.238;2023-02-20T14:49:15;99494.69;;;13.31;60.93
16431;BME280;8325;49.284;7.238;2023-02-20T14:53:27;99483.38;;;13.22;60.11
16431;BME280;8325;49.284;7.238;2023-02-20T14:57:38;99486.47;;;13.18;60.30
16431;BME280;8325;49.284;7.238;2023-02-20T15:01:52;99477.63;;;13.19;61.29
16431;BME280;8325;49.284;7.238;2023-02-20T15:06:05;99473.06;;;13.12;60.60
16431;BME280;8325;49.284;7.238;2023-02-20T15:10:47;99463.53;;;13.11;59.97
16431;BME280;8325;49.284;7.238;2023-02-20T15:15:03;99469.78;;;13.10;60.94
16431;BME280;8325;49.284;7.238;2023-02-20T15:19:20;99458.47;;;13.10;61.08
16431;BME280;8325;49.284;7.238;2023-02-20T15:23:43;99458.34;;;13.03;60.07
16431;BME280;8325;49.284;7.238;2023-02-20T15:28:12;99453.75;;;12.97;60.57
16431;BME280;8325;49.284;7.238;2023-02-20T15:32:34;99443.28;;;12.97;61.63
16431;BME280;8325;49.284;7.238;2023-02-20T15:36:47;99444.75;;;13.00;62.03
16431;BME280;8325;49.284;7.238;2023-02-20T15:41:01;99448.66;;;12.96;62.06
16431;BME280;8325;49.284;7.238;2023-02-20T15:45:14;99443.28;;;12.89;61.71
16431;BME280;8325;49.284;7.238;2023-02-20T15:49:25;99440.84;;;12.79;62.00
16431;BME280;8325;49.284;7.238;2023-02-20T15:53:37;99433.81;;;12.72;60.68
16431;BME280;8325;49.284;7.238;2023-02-20T15:57:50;99435.13;;;12.59;61.20
16431;BME280;8325;49.284;7.238;2023-02-20T16:02:12;99427.75;;;12.55;61.56
16431;BME280;8325;49.284;7.238;2023-02-20T16:06:24;99421.56;;;12.48;61.43
16431;BME280;8325;49.284;7.238;2023-02-20T16:10:35;99425.97;;;12.47;62.75
16431;BME280;8325;49.284;7.238;2023-02-20T16:14:47;99410.91;;;12.41;62.23
16431;BME280;8325;49.284;7.238;2023-02-20T16:19:14;99416.63;;;12.36;61.85
16431;BME280;8325;49.284;7.238;2023-02-20T16:23:26;99413.03;;;12.29;61.90
16431;BME280;8325;49.284;7.238;2023-02-20T16:27:41;99411.06;;;12.15;63.03
16431;BME280;8325;49.284;7.238;2023-02-20T16:36:04;99399.41;;;11.85;64.49
16431;BME280;8325;49.284;7.238;2023-02-20T16:40:21;99404.59;;;11.77;64.93
16431;BME280;8325;49.284;7.238;2023-02-20T16:44:39;99400.97;;;11.61;66.01
16431;BME280;8325;49.284;7.238;2023-02-20T16:48:52;99414.03;;;11.53;65.97
16431;BME280;8325;49.284;7.238;2023-02-20T16:53:04;99411.03;;;11.40;66.58
16431;BME280;8325;49.284;7.238;2023-02-20T16:57:17;99421.97;;;11.35;67.50
16431;BME280;8325;49.284;7.238;2023-02-20T17:01:29;99407.34;;;11.16;68.09
16431;BME280;8325;49.284;7.238;2023-02-20T17:05:41;99400.91;;;11.02;68.73
16431;BME280;8325;49.284;7.238;2023-02-20T17:09:52;99398.41;;;10.93;68.83
16431;BME280;8325;49.284;7.238;2023-02-20T17:14:04;99402.31;;;10.89;69.16
16431;BME280;8325;49.284;7.238;2023-02-20T17:18:15;99392.09;;;10.77;69.54
16431;BME280;8325;49.284;7.238;2023-02-20T17:22:27;99395.63;;;10.68;70.26
16431;BME280;8325;49.284;7.238;2023-02-20T17:26:39;99397.91;;;10.63;70.63
16431;BME280;8325;49.284;7.238;2023-02-20T17:30:51;99400.97;;;10.58;70.79
16431;BME280;8325;49.284;7.238;2023-02-20T17:35:05;99406.97;;;10.51;70.94
16431;BME280;8325;49.284;7.238;2023-02-20T17:39:19;99400.34;;;10.39;71.76
16431;BME280;8325;49.284;7.238;2023-02-20T17:43:31;99401.09;;;10.31;72.19
16431;BME280;8325;49.284;7.238;2023-02-20T17:47:43;99408.69;;;10.24;72.76
16431;BME280;8325;49.284;7.238;2023-02-20T17:51:57;99421.38;;;10.19;72.98
16431;BME280;8325;49.284;7.238;2023-02-20T17:56:12;99414.28;;;10.11;73.22
16431;BME280;8325;49.284;7.238;2023-02-20T18:00:24;99414.06;;;10.05;73.90
16431;BME280;8325;49.284;7.238;2023-02-20T18:04:36;99414.38;;;10.02;73.96
16431;BME280;8325;49.284;7.238;2023-02-20T18:08:48;99418.63;;;10.03;73.69
16431;BME280;8325;49.284;7.238;2023-02-20T18:13:03;99420.41;;;10.02;74.30
16431;BME280;8325;49.284;7.238;2023-02-20T18:17:14;99420.78;;;9.89;74.65
16431;BME280;8325;49.284;7.238;2023-02-20T18:21:28;99420.47;;;9.93;74.54
16431;BME280;8325;49.284;7.238;2023-02-20T18:25:40;99418.31;;;9.88;75.30
16431;BME280;8325;49.284;7.238;2023-02-20T18:29:51;99406.09;;;9.88;75.08
16431;BME280;8325;49.284;7.238;2023-02-20T18:34:03;99416.16;;;9.83;74.97
16431;BME280;8325;49.284;7.238;2023-02-20T18:38:15;99407.41;;;9.75;75.46
16431;BME280;8325;49.284;7.238;2023-02-20T18:42:26;99401.38;;;9.74;75.73
16431;BME280;8325;49.284;7.238;2023-02-20T18:46:38;99403.59;;;9.69;75.95
16431;BME280;8325;49.284;7.238;2023-02-20T18:50:50;99403.25;;;9.64;76.19
16431;BME280;8325;49.284;7.238;2023-02-20T18:55:02;99400.09;;;9.60;76.54
16431;BME280;8325;49.284;7.238;2023-02-20T18:59:14;99408.34;;;9.56;76.52
16431;BME280;8325;49.284;7.238;2023-02-20T19:03:26;99399.25;;;9.60;76.53
16431;BME280;8325;49.284;7.238;2023-02-20T19:07:41;99402.09;;;9.49;76.51
16431;BME280;8325;49.284;7.238;2023-02-20T19:11:55;99410.50;;;9.42;76.61
16431;BME280;8325;49.284;7.238;2023-02-20T19:16:07;99413.53;;;9.38;76.80
16431;BME280;8325;49.284;7.238;2023-02-20T19:20:25;99406.53;;;9.38;77.06
16431;BME280;8325;49.284;7.238;2023-02-20T19:24:39;99406.81;;;9.35;77.07
16431;BME280;8325;49.284;7.238;2023-02-20T19:28:51;99403.38;;;9.35;76.71
16431;BME280;8325;49.284;7.238;2023-02-20T19:33:02;99407.38;;;9.29;77.21
16431;BME280;8325;49.284;7.238;2023-02-20T19:37:15;99404.13;;;9.27;76.88
16431;BME280;8325;49.284;7.238;2023-02-20T19:41:27;99398.06;;;9.27;76.91
16431;BME280;8325;49.284;7.238;2023-02-20T19:45:39;99397.53;;;9.23;77.06
16431;BME280;8325;49.284;7.238;2023-02-20T19:49:50;99400.16;;;9.23;77.14
16431;BME280;8325;49.284;7.238;2023-02-20T19:54:02;99388.50;;;9.17;77.22
16431;BME280;8325;49.284;7.238;2023-02-20T19:58:14;99389.66;;;9.15;77.14
16431;BME280;8325;49.284;7.238;2023-02-20T20:02:26;99394.63;;;9.08;77.68
16431;BME280;8325;49.284;7.238;2023-02-20T20:06:38;99379.78;;;9.09;77.49
16431;BME280;8325;49.284;7.238;2023-02-20T20:10:49;99387.91;;;9.06;77.51
16431;BME280;8325;49.284;7.238;2023-02-20T20:15:03;99387.66;;;8.99;77.97
16431;BME280;8325;49.284;7.238;2023-02-20T20:19:16;99385.34;;;8.96;78.00
16431;BME280;8325;49.284;7.238;2023-02-20T20:23:29;99389.03;;;8.93;78.26
16431;BME280;8325;49.284;7.238;2023-02-20T20:27:40;99395.06;;;8.94;78.57
16431;BME280;8325;49.284;7.238;2023-02-20T20:31:52;99381.22;;;8.93;78.44
16431;BME280;8325;49.284;7.238;2023-02-20T20:36:06;99398.25;;;8.88;78.89
16431;BME280;8325;49.284;7.238;2023-02-20T20:40:18;99396.63;;;8.87;79.03
16431;BME280;8325;49.284;7.238;2023-02-20T20:44:33;99404.84;;;8.82;79.10
16431;BME280;8325;49.284;7.238;2023-02-20T20:48:44;99407.72;;;8.79;79.34
16431;BME280;8325;49.284;7.238;2023-02-20T20:52:59;99407.03;;;8.77;79.74
16431;BME280;8325;49.284;7.238;2023-02-20T20:57:11;99410.09;;;8.63;80.33
16431;BME280;8325;49.284;7.238;2023-02-20T21:01:22;99414.38;;;8.44;81.11
16431;BME280;8325;49.284;7.238;2023-02-20T21:05:34;99415.88;;;8.18;81.36
16431;BME280;8325;49.284;7.238;2023-02-20T21:09:46;99418.88;;;8.03;82.12
16431;BME280;8325;49.284;7.238;2023-02-20T21:13:57;99413.38;;;7.77;82.99
16431;BME280;8325;49.284;7.238;2023-02-20T21:18:09;99423.19;;;7.54;83.40
16431;BME280;8325;49.284;7.238;2023-02-20T21:22:21;99414.91;;;7.30;84.37
16431;BME280;8325;49.284;7.238;2023-02-20T21:26:32;99418.94;;;7.13;85.24
16431;BME280;8325;49.284;7.238;2023-02-20T21:30:44;99415.06;;;6.98;86.18
16431;BME280;8325;49.284;7.238;2023-02-20T21:34:58;99406.50;;;6.86;86.36
16431;BME280;8325;49.284;7.238;2023-02-20T21:39:09;99396.50;;;6.72;86.89
16431;BME280;8325;49.284;7.238;2023-02-20T21:43:21;99395.28;;;6.55;88.05
16431;BME280;8325;49.284;7.238;2023-02-20T21:47:51;99389.97;;;6.35;88.25
16431;BME280;8325;49.284;7.238;2023-02-20T21:52:03;99375.28;;;6.25;88.81
16431;BME280;8325;49.284;7.238;2023-02-20T21:56:15;99385.22;;;6.19;88.71
16431;BME280;8325;49.284;7.238;2023-02-20T22:00:27;99381.16;;;6.06;89.34
16431;BME280;8325;49.284;7.238;2023-02-20T22:04:38;99382.22;;;6.03;89.24
16431;BME280;8325;49.284;7.238;2023-02-20T22:08:50;99378.22;;;5.88;89.55
16431;BME280;8325;49.284;7.238;2023-02-20T22:13:20;99369.88;;;5.84;90.18
16431;BME280;8325;49.284;7.238;2023-02-20T22:17:50;99365.34;;;5.65;90.02
16431;BME280;8325;49.284;7.238;2023-02-20T22:22:20;99368.34;;;5.49;91.06
16431;BME280;8325;49.284;7.238;2023-02-20T22:26:51;99373.78;;;5.46;91.17
